createdAt,value
2018-07-20T00:00:25.303Z,2.60
2018-07-20T00:01:25.260Z,2.60
2018-07-20T00:02:25.239Z,2.70
2018-07-20T00:03:25.169Z,2.50
2018-07-20T00:04:25.126Z,2.50
2018-07-20T00:05:25.074Z,2.70
2018-07-20T00:06:25.035Z,2.70
2018-07-20T00:07:25.006Z,2.60
2018-07-20T00:08:24.940Z,2.30
2018-07-20T00:09:24.891Z,2.50
2018-07-20T00:10:24.851Z,2.70
2018-07-20T00:11:24.801Z,2.60
2018-07-20T00:12:24.783Z,2.50
2018-07-20T00:13:24.711Z,2.60
2018-07-20T00:14:24.670Z,2.60
2018-07-20T00:15:24.631Z,2.70
2018-07-20T00:16:24.574Z,2.70
2018-07-20T00:17:24.553Z,2.70
2018-07-20T00:18:24.483Z,2.50
2018-07-20T00:19:24.437Z,2.60
2018-07-20T00:20:24.391Z,2.60
2018-07-20T00:21:24.344Z,2.60
2018-07-20T00:22:24.322Z,2.70
2018-07-20T00:23:24.257Z,2.70
2018-07-20T00:24:24.209Z,2.70
2018-07-20T00:25:24.162Z,2.80
2018-07-20T00:26:24.118Z,2.50
2018-07-20T00:27:24.097Z,2.90
2018-07-20T00:28:24.027Z,2.50
2018-07-20T00:29:23.983Z,2.50
2018-07-20T00:30:23.996Z,2.70
2018-07-20T00:31:23.887Z,2.50
2018-07-20T00:32:23.864Z,2.90
2018-07-20T00:33:23.798Z,2.60
2018-07-20T00:34:23.755Z,2.60
2018-07-20T00:35:23.707Z,2.60
2018-07-20T00:36:23.658Z,2.80
2018-07-20T00:37:23.638Z,2.80
2018-07-20T00:38:23.565Z,2.80
2018-07-20T00:39:23.518Z,2.60
2018-07-20T00:40:23.473Z,2.70
2018-07-20T00:41:23.433Z,2.70
2018-07-20T00:42:23.408Z,2.90
2018-07-20T00:43:23.337Z,2.50
2018-07-20T00:44:23.293Z,2.70
2018-07-20T00:45:23.248Z,2.60
2018-07-20T00:46:23.199Z,2.90
2018-07-20T00:47:23.180Z,2.80
2018-07-20T00:48:23.106Z,3.00
2018-07-20T00:49:23.059Z,2.90
2018-07-20T00:50:23.017Z,2.90
2018-07-20T00:51:22.966Z,2.80
2018-07-20T00:52:22.947Z,2.50
2018-07-20T00:53:22.901Z,2.80
2018-07-20T00:54:22.834Z,3.00
2018-07-20T00:55:22.787Z,2.90
2018-07-20T00:56:22.739Z,2.90
2018-07-20T00:57:22.697Z,3.20
2018-07-20T00:58:22.673Z,3.00
2018-07-20T00:59:22.602Z,2.80
2018-07-20T01:00:22.557Z,2.80
2018-07-20T01:01:22.511Z,3.10
2018-07-20T01:02:22.465Z,3.20
2018-07-20T01:03:22.442Z,2.90
2018-07-20T01:04:22.370Z,3.00
2018-07-20T01:05:22.360Z,2.90
2018-07-20T01:06:22.282Z,3.30
2018-07-20T01:07:22.234Z,3.30
2018-07-20T01:08:22.209Z,2.90
2018-07-20T01:09:22.143Z,3.00
2018-07-20T01:10:22.094Z,3.10
2018-07-20T01:11:22.052Z,2.80
2018-07-20T01:12:22.007Z,3.00
2018-07-20T01:13:21.981Z,2.90
2018-07-20T01:14:21.912Z,3.00
2018-07-20T01:15:21.869Z,3.10
2018-07-20T01:16:21.818Z,2.90
2018-07-20T01:17:21.773Z,3.10
2018-07-20T01:18:21.753Z,3.00
2018-07-20T01:19:21.682Z,3.20
2018-07-20T01:20:21.634Z,3.00
2018-07-20T01:21:21.594Z,3.20
2018-07-20T01:22:21.542Z,3.00
2018-07-20T01:23:21.517Z,3.10
2018-07-20T01:24:21.452Z,3.20
2018-07-20T01:25:21.404Z,3.00
2018-07-20T01:26:21.358Z,2.80
2018-07-20T01:27:21.313Z,2.90
2018-07-20T01:28:21.287Z,3.00
2018-07-20T01:29:21.215Z,3.00
2018-07-20T01:30:21.173Z,3.20
2018-07-20T01:31:21.128Z,3.00
2018-07-20T01:32:21.079Z,3.10
2018-07-20T01:33:21.055Z,3.10
2018-07-20T01:34:20.992Z,3.00
2018-07-20T01:35:20.939Z,3.10
2018-07-20T01:36:20.896Z,3.10
2018-07-20T01:37:20.850Z,3.00
2018-07-20T01:38:20.827Z,3.20
2018-07-20T01:39:20.757Z,3.10
2018-07-20T01:40:20.712Z,3.00
2018-07-20T01:41:20.661Z,3.20
2018-07-20T01:42:20.621Z,3.00
2018-07-20T01:43:20.595Z,3.50
2018-07-20T01:44:20.528Z,3.20
2018-07-20T01:45:20.479Z,3.20
2018-07-20T01:46:20.435Z,3.00
2018-07-20T01:47:20.383Z,3.00
2018-07-20T01:48:20.362Z,3.30
2018-07-20T01:49:20.294Z,3.30
2018-07-20T01:50:20.248Z,3.10
2018-07-20T01:51:20.203Z,3.00
2018-07-20T01:52:20.151Z,3.20
2018-07-20T01:53:20.131Z,3.10
2018-07-20T01:54:20.062Z,3.10
2018-07-20T01:55:20.015Z,3.30
2018-07-20T01:56:19.968Z,3.20
2018-07-20T01:57:19.922Z,3.40
2018-07-20T01:58:19.896Z,3.20
2018-07-20T01:59:19.826Z,3.10
2018-07-20T02:00:19.782Z,2.90
2018-07-20T02:01:19.737Z,3.20
2018-07-20T02:02:19.686Z,3.10
2018-07-20T02:03:19.665Z,2.90
2018-07-20T02:04:19.596Z,3.50
2018-07-20T02:05:19.547Z,3.20
2018-07-20T02:06:19.501Z,3.10
2018-07-20T02:07:19.450Z,3.20
2018-07-20T02:08:19.437Z,3.20
2018-07-20T02:09:19.362Z,3.20
2018-07-20T02:10:19.315Z,3.30
2018-07-20T02:11:19.268Z,3.40
2018-07-20T02:12:19.233Z,3.20
2018-07-20T02:13:19.200Z,3.30
2018-07-20T02:14:19.129Z,3.40
2018-07-20T02:15:19.085Z,3.00
2018-07-20T02:16:19.037Z,3.30
2018-07-20T02:17:18.990Z,3.20
2018-07-20T02:18:18.961Z,3.10
2018-07-20T02:19:18.893Z,3.20
2018-07-20T02:20:18.851Z,3.20
2018-07-20T02:21:18.798Z,3.20
2018-07-20T02:22:18.756Z,3.20
2018-07-20T02:23:18.745Z,3.20
2018-07-20T02:24:18.660Z,3.40
2018-07-20T02:25:18.619Z,3.20
2018-07-20T02:26:18.568Z,3.50
2018-07-20T02:27:18.525Z,3.30
2018-07-20T02:28:18.476Z,3.30
2018-07-20T02:29:18.449Z,3.40
2018-07-20T02:30:18.381Z,3.40
2018-07-20T02:31:18.332Z,3.30
2018-07-20T02:32:18.289Z,3.40
2018-07-20T02:33:18.241Z,3.30
2018-07-20T02:34:18.218Z,3.90
2018-07-20T02:35:18.159Z,3.40
2018-07-20T02:36:18.101Z,3.50
2018-07-20T02:37:18.055Z,3.10
2018-07-20T02:38:18.007Z,3.50
2018-07-20T02:39:17.982Z,3.40
2018-07-20T02:40:17.911Z,3.50
2018-07-20T02:41:17.868Z,3.30
2018-07-20T02:42:17.819Z,3.70
2018-07-20T02:43:17.780Z,3.50
2018-07-20T02:44:17.753Z,3.50
2018-07-20T02:45:17.681Z,3.50
2018-07-20T02:46:17.700Z,3.20
2018-07-20T02:47:17.595Z,3.30
2018-07-20T02:48:17.535Z,3.40
2018-07-20T02:49:17.511Z,3.30
2018-07-20T02:50:17.442Z,3.50
2018-07-20T02:51:17.393Z,3.40
2018-07-20T02:52:17.344Z,3.40
2018-07-20T02:53:17.303Z,3.50
2018-07-20T02:54:17.276Z,3.40
2018-07-20T02:55:17.204Z,3.70
2018-07-20T02:56:17.155Z,3.50
2018-07-20T02:57:17.110Z,3.50
2018-07-20T02:58:17.063Z,3.70
2018-07-20T02:59:17.036Z,3.80
2018-07-20T03:00:16.966Z,3.60
2018-07-20T03:01:16.923Z,3.70
2018-07-20T03:02:16.877Z,3.50
2018-07-20T03:03:16.825Z,3.50
2018-07-20T03:04:16.812Z,3.80
2018-07-20T03:05:16.740Z,3.50
2018-07-20T03:06:16.687Z,3.70
2018-07-20T03:07:16.638Z,3.60
2018-07-20T03:08:16.593Z,3.70
2018-07-20T03:09:16.571Z,3.80
2018-07-20T03:10:16.500Z,3.60
2018-07-20T03:11:16.454Z,3.90
2018-07-20T03:12:16.404Z,3.50
2018-07-20T03:13:16.357Z,3.50
2018-07-20T03:14:16.338Z,3.80
2018-07-20T03:15:16.261Z,3.60
2018-07-20T03:16:16.218Z,3.60
2018-07-20T03:17:16.166Z,3.60
2018-07-20T03:18:16.123Z,3.50
2018-07-20T03:19:16.094Z,3.60
2018-07-20T03:20:16.025Z,3.90
2018-07-20T03:21:15.980Z,3.80
2018-07-20T03:22:15.932Z,3.50
2018-07-20T03:23:15.885Z,3.70
2018-07-20T03:24:15.862Z,3.80
2018-07-20T03:25:15.788Z,3.70
2018-07-20T03:26:15.747Z,3.50
2018-07-20T03:27:15.695Z,3.50
2018-07-20T03:28:15.649Z,3.70
2018-07-20T03:29:15.630Z,3.60
2018-07-20T03:30:15.556Z,4.10
2018-07-20T03:31:15.509Z,3.70
2018-07-20T03:32:15.464Z,3.80
2018-07-20T03:33:15.411Z,3.80
2018-07-20T03:34:15.390Z,3.70
2018-07-20T03:35:15.320Z,3.70
2018-07-20T03:36:15.271Z,3.30
2018-07-20T03:37:15.224Z,3.70
2018-07-20T03:38:15.180Z,3.60
2018-07-20T03:39:15.154Z,3.70
2018-07-20T03:40:15.082Z,3.80
2018-07-20T03:41:15.036Z,3.90
2018-07-20T03:42:14.989Z,3.80
2018-07-20T03:43:14.941Z,3.70
2018-07-20T03:44:14.915Z,3.60
2018-07-20T03:45:14.846Z,4.10
2018-07-20T03:46:14.800Z,3.80
2018-07-20T03:47:14.750Z,3.90
2018-07-20T03:48:14.708Z,3.60
2018-07-20T03:49:14.685Z,3.60
2018-07-20T03:50:14.616Z,3.80
2018-07-20T03:51:14.572Z,3.80
2018-07-20T03:52:14.540Z,3.80
2018-07-20T03:53:14.473Z,3.60
2018-07-20T03:54:14.421Z,3.70
2018-07-20T03:55:14.400Z,3.80
2018-07-20T03:56:14.328Z,3.50
2018-07-20T03:57:14.277Z,3.90
2018-07-20T03:58:14.237Z,3.70
2018-07-20T03:59:14.183Z,3.90
2018-07-20T04:00:14.164Z,3.70
2018-07-20T04:01:14.093Z,3.60
2018-07-20T04:02:14.047Z,3.90
2018-07-20T04:03:13.995Z,3.70
2018-07-20T04:04:13.948Z,3.80
2018-07-20T04:05:13.924Z,3.60
2018-07-20T04:06:13.856Z,3.60
2018-07-20T04:07:13.809Z,3.60
2018-07-20T04:08:13.762Z,3.60
2018-07-20T04:09:13.714Z,3.90
2018-07-20T04:10:13.710Z,3.60
2018-07-20T04:11:13.621Z,3.60
2018-07-20T04:12:13.571Z,3.60
2018-07-20T04:13:13.527Z,3.70
2018-07-20T04:14:13.475Z,3.60
2018-07-20T04:15:13.456Z,3.60
2018-07-20T04:16:13.386Z,3.90
2018-07-20T04:17:13.343Z,3.60
2018-07-20T04:18:13.291Z,3.70
2018-07-20T04:19:13.247Z,3.80
2018-07-20T04:20:13.223Z,3.80
2018-07-20T04:21:13.154Z,3.60
2018-07-20T04:22:13.113Z,3.50
2018-07-20T04:23:13.056Z,4.30
2018-07-20T04:24:13.011Z,3.80
2018-07-20T04:25:12.982Z,3.90
2018-07-20T04:26:12.913Z,3.60
2018-07-20T04:27:12.866Z,4.10
2018-07-20T04:28:12.821Z,3.70
2018-07-20T04:29:12.773Z,3.80
2018-07-20T04:30:12.750Z,3.50
2018-07-20T04:31:12.680Z,3.60
2018-07-20T04:32:12.637Z,3.60
2018-07-20T04:33:12.591Z,3.40
2018-07-20T04:34:12.540Z,3.60
2018-07-20T04:35:12.512Z,3.80
2018-07-20T04:36:12.442Z,3.70
2018-07-20T04:37:12.396Z,3.80
2018-07-20T04:38:12.347Z,4.10
2018-07-20T04:39:12.305Z,4.30
2018-07-20T04:40:12.280Z,3.90
2018-07-20T04:41:12.223Z,4.10
2018-07-20T04:42:12.164Z,4.00
2018-07-20T04:43:12.116Z,3.90
2018-07-20T04:44:12.070Z,3.30
2018-07-20T04:45:12.046Z,3.70
2018-07-20T04:46:11.974Z,3.60
2018-07-20T04:47:11.931Z,3.70
2018-07-20T04:48:11.883Z,3.20
2018-07-20T04:49:11.837Z,3.60
2018-07-20T04:50:11.818Z,3.40
2018-07-20T04:51:11.740Z,3.20
2018-07-20T04:52:11.699Z,3.90
2018-07-20T04:53:11.651Z,3.30
2018-07-20T04:54:11.604Z,3.80
2018-07-20T04:55:11.580Z,3.10
2018-07-20T04:56:11.511Z,3.70
2018-07-20T04:57:11.460Z,3.80
2018-07-20T04:58:11.418Z,3.70
2018-07-20T04:59:11.367Z,3.60
2018-07-20T05:00:11.347Z,3.40
2018-07-20T05:01:11.282Z,3.10
2018-07-20T05:02:11.230Z,3.30
2018-07-20T05:03:11.181Z,3.70
2018-07-20T05:04:11.136Z,3.80
2018-07-20T05:05:11.117Z,3.50
2018-07-20T05:06:11.044Z,3.50
2018-07-20T05:07:10.998Z,3.40
2018-07-20T05:08:10.954Z,3.10
2018-07-20T05:09:10.908Z,3.00
2018-07-20T05:10:10.885Z,3.20
2018-07-20T05:11:10.812Z,2.90
2018-07-20T05:12:10.772Z,3.10
2018-07-20T05:13:10.722Z,3.10
2018-07-20T05:14:10.673Z,2.90
2018-07-20T05:15:10.646Z,3.00
2018-07-20T05:16:10.603Z,3.00
2018-07-20T05:17:10.541Z,3.10
2018-07-20T05:18:10.489Z,3.40
2018-07-20T05:19:10.445Z,3.40
2018-07-20T05:20:10.420Z,3.50
2018-07-20T05:21:10.348Z,3.70
2018-07-20T05:22:10.306Z,3.40
2018-07-20T05:23:10.263Z,3.60
2018-07-20T05:24:10.229Z,3.70
2018-07-20T05:25:10.193Z,3.80
2018-07-20T05:26:10.120Z,4.10
2018-07-20T05:27:10.077Z,3.80
2018-07-20T05:28:10.024Z,3.90
2018-07-20T05:29:09.983Z,3.90
2018-07-20T05:30:09.935Z,3.90
2018-07-20T05:31:09.955Z,3.60
2018-07-20T05:32:09.843Z,3.50
2018-07-20T05:33:09.801Z,4.20
2018-07-20T05:34:09.755Z,3.80
2018-07-20T05:35:09.709Z,3.70
2018-07-20T05:36:09.682Z,3.40
2018-07-20T05:37:09.621Z,3.30
2018-07-20T05:38:09.619Z,3.40
2018-07-20T05:39:09.520Z,3.40
2018-07-20T05:40:09.478Z,4.00
2018-07-20T05:41:09.454Z,3.60
2018-07-20T05:42:09.386Z,3.10
2018-07-20T05:43:09.337Z,3.20
2018-07-20T05:44:09.296Z,3.80
2018-07-20T05:45:09.269Z,3.40
2018-07-20T05:46:09.224Z,3.30
2018-07-20T05:47:09.154Z,3.90
2018-07-20T05:48:09.107Z,3.70
2018-07-20T05:49:09.065Z,3.70
2018-07-20T05:50:09.021Z,3.60
2018-07-20T05:51:09.001Z,3.30
2018-07-20T05:52:08.933Z,3.00
2018-07-20T05:53:08.878Z,3.00
2018-07-20T05:54:08.836Z,3.00
2018-07-20T05:55:08.790Z,3.10
2018-07-20T05:56:08.767Z,3.20
2018-07-20T05:57:08.702Z,3.20
2018-07-20T05:58:08.658Z,3.30
2018-07-20T05:59:08.605Z,3.10
2018-07-20T06:00:08.560Z,3.30
2018-07-20T06:01:08.541Z,3.30
2018-07-20T06:02:08.471Z,3.10
2018-07-20T06:03:08.425Z,3.60
2018-07-20T06:04:08.419Z,3.20
2018-07-20T06:05:08.335Z,3.60
2018-07-20T06:06:08.318Z,3.10
2018-07-20T06:07:08.246Z,3.20
2018-07-20T06:08:08.202Z,3.30
2018-07-20T06:09:08.153Z,3.20
2018-07-20T06:10:08.116Z,3.30
2018-07-20T06:11:08.093Z,3.00
2018-07-20T06:12:08.021Z,3.30
2018-07-20T06:13:07.972Z,2.90
2018-07-20T06:14:07.937Z,3.00
2018-07-20T06:15:07.882Z,3.20
2018-07-20T06:16:07.864Z,2.80
2018-07-20T06:17:07.792Z,2.90
2018-07-20T06:18:07.748Z,3.00
2018-07-20T06:19:07.708Z,3.30
2018-07-20T06:20:07.655Z,3.10
2018-07-20T06:21:07.633Z,3.30
2018-07-20T06:22:07.563Z,3.00
2018-07-20T06:23:07.522Z,3.00
2018-07-20T06:24:07.474Z,2.80
2018-07-20T06:25:07.433Z,2.90
2018-07-20T06:26:07.408Z,2.80
2018-07-20T06:27:07.348Z,3.00
2018-07-20T06:28:07.298Z,2.80
2018-07-20T06:29:07.252Z,3.00
2018-07-20T06:30:07.204Z,2.90
2018-07-20T06:31:07.186Z,2.80
2018-07-20T06:32:07.119Z,2.70
2018-07-20T06:33:07.076Z,2.80
2018-07-20T06:34:07.031Z,3.10
2018-07-20T06:35:07.014Z,3.20
2018-07-20T06:36:06.970Z,3.00
2018-07-20T06:37:06.895Z,2.90
2018-07-20T06:38:06.852Z,3.00
2018-07-20T06:39:06.804Z,3.20
2018-07-20T06:40:06.764Z,3.20
2018-07-20T06:41:06.738Z,3.30
2018-07-20T06:42:06.673Z,3.50
2018-07-20T06:43:06.627Z,3.10
2018-07-20T06:44:06.587Z,2.90
2018-07-20T06:45:06.538Z,3.00
2018-07-20T06:46:06.515Z,3.00
2018-07-20T06:47:06.445Z,3.20
2018-07-20T06:48:06.402Z,2.80
2018-07-20T06:49:06.358Z,2.90
2018-07-20T06:50:06.312Z,2.80
2018-07-20T06:51:06.299Z,2.60
2018-07-20T06:52:06.223Z,2.80
2018-07-20T06:53:06.181Z,2.90
2018-07-20T06:54:06.142Z,2.80
2018-07-20T06:55:06.095Z,2.50
2018-07-20T06:56:06.076Z,2.70
2018-07-20T06:57:06.027Z,2.80
2018-07-20T06:58:05.959Z,2.90
2018-07-20T06:59:05.911Z,3.10
2018-07-20T07:00:05.871Z,2.90
2018-07-20T07:01:05.826Z,2.70
2018-07-20T07:02:05.810Z,2.60
2018-07-20T07:03:05.735Z,2.90
2018-07-20T07:04:05.691Z,2.60
2018-07-20T07:05:05.648Z,2.90
2018-07-20T07:06:05.607Z,2.70
2018-07-20T07:07:05.585Z,2.50
2018-07-20T07:08:05.515Z,2.70
2018-07-20T07:09:05.473Z,2.70
2018-07-20T07:10:05.438Z,2.70
2018-07-20T07:11:05.386Z,2.30
2018-07-20T07:12:05.365Z,2.70
2018-07-20T07:13:05.295Z,2.60
2018-07-20T07:14:05.257Z,2.80
2018-07-20T07:15:05.215Z,2.60
2018-07-20T07:16:05.168Z,2.80
2018-07-20T07:17:05.148Z,2.50
2018-07-20T07:18:05.078Z,2.50
2018-07-20T07:19:05.035Z,2.60
2018-07-20T07:20:04.991Z,2.50
2018-07-20T07:21:04.949Z,2.50
2018-07-20T07:22:04.926Z,2.70
2018-07-20T07:23:04.859Z,2.70
2018-07-20T07:24:04.818Z,2.90
2018-07-20T07:25:04.773Z,2.40
2018-07-20T07:26:04.732Z,2.60
2018-07-20T07:27:04.710Z,2.40
2018-07-20T07:28:04.643Z,2.30
2018-07-20T07:29:04.619Z,2.60
2018-07-20T07:30:04.555Z,2.40
2018-07-20T07:31:04.513Z,2.60
2018-07-20T07:32:04.497Z,2.60
2018-07-20T07:33:04.428Z,2.60
2018-07-20T07:34:04.386Z,2.70
2018-07-20T07:35:04.342Z,2.50
2018-07-20T07:36:04.299Z,2.60
2018-07-20T07:37:04.281Z,2.60
2018-07-20T07:38:04.215Z,2.70
2018-07-20T07:39:04.169Z,2.60
2018-07-20T07:40:04.126Z,2.40
2018-07-20T07:41:04.084Z,2.80
2018-07-20T07:42:04.106Z,2.50
2018-07-20T07:43:04.002Z,2.70
2018-07-20T07:44:03.961Z,2.70
2018-07-20T07:45:03.917Z,2.60
2018-07-20T07:46:03.870Z,2.60
2018-07-20T07:47:03.854Z,2.50
2018-07-20T07:48:03.787Z,2.50
2018-07-20T07:49:03.744Z,2.40
2018-07-20T07:50:03.709Z,2.70
2018-07-20T07:51:03.658Z,2.40
2018-07-20T07:52:03.641Z,2.30
2018-07-20T07:53:03.572Z,2.60
2018-07-20T07:54:03.535Z,2.40
2018-07-20T07:55:03.492Z,2.40
2018-07-20T07:56:03.446Z,2.70
2018-07-20T07:57:03.428Z,2.60
2018-07-20T07:58:03.368Z,2.60
2018-07-20T07:59:03.326Z,2.60
2018-07-20T08:00:03.287Z,2.60
2018-07-20T08:01:03.236Z,3.10
2018-07-20T08:02:03.217Z,2.70
2018-07-20T08:03:03.170Z,3.20
2018-07-20T08:04:03.113Z,2.80
2018-07-20T08:05:03.070Z,2.80
2018-07-20T08:06:03.032Z,2.70
2018-07-20T08:07:03.013Z,2.70
2018-07-20T08:08:02.944Z,2.70
2018-07-20T08:09:02.953Z,2.40
2018-07-20T08:10:03.037Z,2.50
2018-07-20T08:11:02.823Z,2.50
2018-07-20T08:12:02.810Z,2.50
2018-07-20T08:13:02.742Z,2.60
2018-07-20T08:14:02.693Z,2.40
2018-07-20T08:15:02.649Z,2.40
2018-07-20T08:16:02.608Z,2.30
2018-07-20T08:17:02.594Z,2.50
2018-07-20T08:18:02.527Z,2.40
2018-07-20T08:19:02.485Z,2.60
2018-07-20T08:20:02.442Z,2.50
2018-07-20T08:21:02.411Z,2.40
2018-07-20T08:22:02.389Z,2.50
2018-07-20T08:23:02.318Z,2.70
2018-07-20T08:24:02.277Z,2.50
2018-07-20T08:25:02.243Z,2.80
2018-07-20T08:26:02.195Z,2.40
2018-07-20T08:27:02.177Z,2.50
2018-07-20T08:28:02.112Z,2.70
2018-07-20T08:29:02.070Z,2.60
2018-07-20T08:30:02.031Z,2.90
2018-07-20T08:31:01.986Z,2.60
2018-07-20T08:32:01.975Z,2.30
2018-07-20T08:33:01.926Z,2.30
2018-07-20T08:34:01.865Z,2.50
2018-07-20T08:35:01.820Z,2.60
2018-07-20T08:36:01.779Z,2.40
2018-07-20T08:37:01.742Z,2.40
2018-07-20T08:38:01.721Z,2.80
2018-07-20T08:39:01.664Z,2.50
2018-07-20T08:40:01.618Z,2.60
2018-07-20T08:41:01.575Z,2.40
2018-07-20T08:42:01.537Z,2.40
2018-07-20T08:43:01.517Z,2.40
2018-07-20T08:44:01.449Z,2.40
2018-07-20T08:45:01.413Z,2.40
2018-07-20T08:46:01.375Z,2.50
2018-07-20T08:47:01.328Z,2.40
2018-07-20T08:48:01.308Z,2.70
2018-07-20T08:49:01.245Z,2.50
2018-07-20T08:50:01.204Z,2.50
2018-07-20T08:51:01.158Z,2.50
2018-07-20T08:52:01.124Z,2.60
2018-07-20T08:53:01.110Z,2.50
2018-07-20T08:54:01.047Z,2.80
2018-07-20T08:55:01.002Z,2.30
2018-07-20T08:56:00.965Z,2.60
2018-07-20T08:57:00.916Z,2.50
2018-07-20T08:58:00.900Z,2.60
2018-07-20T08:59:00.896Z,2.40
2018-07-20T09:00:00.852Z,2.40
2018-07-20T09:01:00.758Z,2.40
2018-07-20T09:02:00.720Z,2.50
2018-07-20T09:03:00.704Z,2.20
2018-07-20T09:04:00.635Z,2.50
2018-07-20T09:05:00.594Z,2.30
2018-07-20T09:06:00.551Z,2.50
2018-07-20T09:07:00.509Z,2.20
2018-07-20T09:08:00.498Z,2.60
2018-07-20T09:09:00.434Z,2.50
2018-07-20T09:10:00.399Z,2.40
2018-07-20T09:11:00.351Z,2.50
2018-07-20T09:12:00.311Z,2.50
2018-07-20T09:13:00.290Z,2.40
2018-07-20T09:14:00.229Z,2.40
2018-07-20T09:15:00.188Z,2.60
2018-07-20T09:16:00.144Z,2.30
2018-07-20T09:17:00.114Z,2.60
2018-07-20T09:18:00.090Z,2.50
2018-07-20T09:19:00.023Z,2.60
2018-07-20T09:19:59.988Z,2.50
2018-07-20T09:20:59.959Z,2.50
2018-07-20T09:21:59.902Z,2.50
2018-07-20T09:22:59.884Z,2.50
2018-07-20T09:23:59.822Z,2.30
2018-07-20T09:24:59.785Z,2.20
2018-07-20T09:25:59.743Z,2.30
2018-07-20T09:26:59.698Z,2.50
2018-07-20T09:27:59.681Z,2.40
2018-07-20T09:28:59.620Z,2.40
2018-07-20T09:29:59.581Z,2.40
2018-07-20T09:30:59.543Z,2.50
2018-07-20T09:31:59.496Z,2.50
2018-07-20T09:32:59.488Z,2.30
2018-07-20T09:33:59.472Z,2.40
2018-07-20T09:34:59.377Z,2.40
2018-07-20T09:35:59.338Z,2.30
2018-07-20T09:36:59.298Z,2.40
2018-07-20T09:37:59.287Z,2.70
2018-07-20T09:38:59.220Z,2.40
2018-07-20T09:39:59.177Z,2.50
2018-07-20T09:40:59.147Z,2.50
2018-07-20T09:41:59.095Z,2.50
2018-07-20T09:42:59.078Z,2.50
2018-07-20T09:43:59.014Z,2.40
2018-07-20T09:44:58.981Z,2.40
2018-07-20T09:45:58.936Z,2.50
2018-07-20T09:46:58.893Z,2.50
2018-07-20T09:47:58.878Z,2.70
2018-07-20T09:48:58.837Z,2.50
2018-07-20T09:49:58.772Z,2.30
2018-07-20T09:50:58.738Z,2.30
2018-07-20T09:51:58.694Z,2.60
2018-07-20T09:52:58.677Z,2.20
2018-07-20T09:53:58.619Z,2.30
2018-07-20T09:54:58.572Z,2.50
2018-07-20T09:55:58.536Z,2.50
2018-07-20T09:56:58.498Z,2.40
2018-07-20T09:57:58.486Z,2.70
2018-07-20T09:58:58.421Z,2.50
2018-07-20T09:59:58.374Z,2.60
2018-07-20T10:00:58.334Z,2.50
2018-07-20T10:01:58.300Z,2.50
2018-07-20T10:02:58.261Z,2.50
2018-07-20T10:03:58.241Z,2.50
2018-07-20T10:04:58.232Z,2.60
2018-07-20T10:05:58.134Z,2.50
2018-07-20T10:06:58.098Z,2.50
2018-07-20T10:07:58.058Z,2.50
2018-07-20T10:08:58.043Z,2.50
2018-07-20T10:09:57.983Z,2.40
2018-07-20T10:10:57.937Z,2.40
2018-07-20T10:11:57.901Z,2.50
2018-07-20T10:12:57.859Z,2.60
2018-07-20T10:13:57.844Z,2.60
2018-07-20T10:14:57.780Z,2.50
2018-07-20T10:15:57.739Z,2.70
2018-07-20T10:16:57.701Z,2.30
2018-07-20T10:17:57.661Z,2.50
2018-07-20T10:18:57.680Z,2.60
2018-07-20T10:19:57.589Z,2.50
2018-07-20T10:20:57.540Z,2.20
2018-07-20T10:21:57.506Z,2.50
2018-07-20T10:22:57.466Z,2.30
2018-07-20T10:23:57.448Z,2.50
2018-07-20T10:24:57.391Z,2.50
2018-07-20T10:25:57.344Z,2.60
2018-07-20T10:26:57.312Z,2.30
2018-07-20T10:27:57.267Z,2.30
2018-07-20T10:28:57.252Z,2.50
2018-07-20T10:29:57.185Z,2.40
2018-07-20T10:30:57.150Z,2.50
2018-07-20T10:31:57.110Z,2.50
2018-07-20T10:32:57.067Z,2.40
2018-07-20T10:33:57.063Z,2.40
2018-07-20T10:34:56.987Z,2.40
2018-07-20T10:35:56.949Z,2.50
2018-07-20T10:36:56.910Z,2.50
2018-07-20T10:37:56.870Z,2.60
2018-07-20T10:38:56.853Z,2.60
2018-07-20T10:39:56.791Z,2.30
2018-07-20T10:40:56.752Z,2.50
2018-07-20T10:41:56.715Z,2.40
2018-07-20T10:42:56.673Z,2.40
2018-07-20T10:43:56.654Z,2.40
2018-07-20T10:44:56.593Z,2.40
2018-07-20T10:45:56.558Z,2.50
2018-07-20T10:46:56.540Z,2.50
2018-07-20T10:47:56.477Z,2.40
2018-07-20T10:48:56.460Z,2.40
2018-07-20T10:49:56.414Z,2.70
2018-07-20T10:50:56.362Z,2.30
2018-07-20T10:51:56.344Z,2.40
2018-07-20T10:52:56.283Z,2.40
2018-07-20T10:53:56.292Z,2.50
2018-07-20T10:54:56.207Z,2.60
2018-07-20T10:55:56.162Z,2.60
2018-07-20T10:56:56.120Z,2.40
2018-07-20T10:57:56.087Z,2.40
2018-07-20T10:58:56.072Z,2.60
2018-07-20T10:59:56.005Z,2.50
2018-07-20T11:00:55.968Z,2.60
2018-07-20T11:01:55.930Z,2.50
2018-07-20T11:02:55.888Z,2.60
2018-07-20T11:03:55.873Z,2.80
2018-07-20T11:04:55.808Z,2.60
2018-07-20T11:05:55.775Z,2.70
2018-07-20T11:06:55.731Z,2.70
2018-07-20T11:07:55.696Z,2.70
2018-07-20T11:08:55.679Z,2.70
2018-07-20T11:09:55.621Z,2.50
2018-07-20T11:10:55.570Z,2.90
2018-07-20T11:11:55.538Z,3.10
2018-07-20T11:12:55.498Z,3.00
2018-07-20T11:13:55.483Z,3.00
2018-07-20T11:14:55.421Z,2.80
2018-07-20T11:15:55.382Z,3.20
2018-07-20T11:16:55.343Z,2.90
2018-07-20T11:17:55.312Z,3.00
2018-07-20T11:18:55.285Z,3.00
2018-07-20T11:19:55.223Z,2.90
2018-07-20T11:20:55.183Z,2.70
2018-07-20T11:21:55.149Z,2.90
2018-07-20T11:22:55.111Z,2.70
2018-07-20T11:23:55.100Z,2.70
2018-07-20T11:24:55.030Z,2.70
2018-07-20T11:25:54.988Z,2.80
2018-07-20T11:26:54.952Z,2.80
2018-07-20T11:27:54.959Z,2.80
2018-07-20T11:28:54.878Z,2.70
2018-07-20T11:29:54.889Z,2.70
2018-07-20T11:30:54.798Z,2.80
2018-07-20T11:31:54.759Z,2.70
2018-07-20T11:32:54.718Z,3.30
2018-07-20T11:33:54.683Z,3.00
2018-07-20T11:34:54.669Z,2.70
2018-07-20T11:35:54.605Z,2.90
2018-07-20T11:36:54.563Z,3.00
2018-07-20T11:37:54.524Z,3.20
2018-07-20T11:38:54.484Z,3.50
2018-07-20T11:39:54.476Z,3.10
2018-07-20T11:40:54.413Z,3.30
2018-07-20T11:41:54.397Z,3.10
2018-07-20T11:42:54.334Z,3.30
2018-07-20T11:43:54.296Z,3.10
2018-07-20T11:44:54.281Z,2.90
2018-07-20T11:45:54.217Z,3.00
2018-07-20T11:46:54.190Z,3.20
2018-07-20T11:47:54.137Z,3.10
2018-07-20T11:48:54.100Z,3.00
2018-07-20T11:49:54.102Z,3.10
2018-07-20T11:50:54.019Z,3.00
2018-07-20T11:51:53.981Z,2.90
2018-07-20T11:52:53.940Z,3.10
2018-07-20T11:53:53.901Z,3.10
2018-07-20T11:54:53.884Z,3.10
2018-07-20T11:55:53.834Z,2.90
2018-07-20T11:56:53.784Z,3.30
2018-07-20T11:57:53.748Z,3.50
2018-07-20T11:58:53.712Z,3.00
2018-07-20T11:59:53.691Z,3.30
2018-07-20T12:00:53.623Z,3.50
2018-07-20T12:01:53.630Z,3.60
2018-07-20T12:02:53.545Z,3.40
2018-07-20T12:03:53.510Z,3.50
2018-07-20T12:04:53.489Z,3.10
2018-07-20T12:05:53.427Z,3.30
2018-07-20T12:06:53.433Z,3.50
2018-07-20T12:07:53.349Z,3.70
2018-07-20T12:08:53.308Z,3.10
2018-07-20T12:09:53.292Z,3.70
2018-07-20T12:10:53.227Z,3.30
2018-07-20T12:11:53.187Z,3.20
2018-07-20T12:12:53.146Z,3.40
2018-07-20T12:13:53.113Z,3.50
2018-07-20T12:14:53.097Z,3.60
2018-07-20T12:15:53.030Z,3.60
2018-07-20T12:16:52.991Z,3.30
2018-07-20T12:17:52.948Z,3.60
2018-07-20T12:18:52.917Z,3.30
2018-07-20T12:19:52.896Z,3.50
2018-07-20T12:20:52.831Z,3.10
2018-07-20T12:21:52.789Z,3.30
2018-07-20T12:22:52.753Z,3.40
2018-07-20T12:23:52.713Z,3.50
2018-07-20T12:24:52.694Z,3.30
2018-07-20T12:25:52.632Z,3.30
2018-07-20T12:26:52.590Z,3.30
2018-07-20T12:27:52.551Z,3.30
2018-07-20T12:28:52.513Z,3.50
2018-07-20T12:29:52.495Z,3.30
2018-07-20T12:30:52.433Z,3.20
2018-07-20T12:31:52.389Z,3.30
2018-07-20T12:32:52.352Z,3.10
2018-07-20T12:33:52.311Z,3.30
2018-07-20T12:34:52.294Z,3.20
2018-07-20T12:35:52.232Z,2.80
2018-07-20T12:36:52.191Z,3.00
2018-07-20T12:37:52.158Z,3.00
2018-07-20T12:38:52.111Z,2.90
2018-07-20T12:39:52.107Z,3.00
2018-07-20T12:40:52.032Z,3.10
2018-07-20T12:41:51.992Z,2.80
2018-07-20T12:42:51.955Z,3.10
2018-07-20T12:43:51.916Z,2.90
2018-07-20T12:44:51.873Z,3.30
2018-07-20T12:45:51.863Z,3.20
2018-07-20T12:46:51.795Z,3.10
2018-07-20T12:47:51.752Z,3.20
2018-07-20T12:48:51.716Z,3.40
2018-07-20T12:49:51.679Z,3.10
2018-07-20T12:50:51.657Z,3.30
2018-07-20T12:51:51.595Z,3.20
2018-07-20T12:52:51.556Z,2.90
2018-07-20T12:53:51.517Z,3.20
2018-07-20T12:54:51.478Z,3.00
2018-07-20T12:55:51.458Z,3.10
2018-07-20T12:56:51.423Z,3.10
2018-07-20T12:57:51.357Z,3.00
2018-07-20T12:58:51.361Z,3.10
2018-07-20T12:59:51.277Z,3.00
2018-07-20T13:00:51.276Z,3.10
2018-07-20T13:01:51.201Z,3.00
2018-07-20T13:02:51.158Z,3.20
2018-07-20T13:03:51.121Z,3.20
2018-07-20T13:04:51.080Z,3.00
2018-07-20T13:05:51.067Z,3.00
2018-07-20T13:06:51.001Z,3.10
2018-07-20T13:07:50.960Z,3.10
2018-07-20T13:08:50.920Z,2.90
2018-07-20T13:09:50.890Z,3.00
2018-07-20T13:10:50.863Z,2.80
2018-07-20T13:11:50.854Z,3.00
2018-07-20T13:12:50.765Z,3.00
2018-07-20T13:13:50.723Z,3.90
2018-07-20T13:14:50.683Z,3.30
2018-07-20T13:15:50.666Z,3.10
2018-07-20T13:16:50.604Z,2.90
2018-07-20T13:17:50.618Z,2.90